Aérodrome :
LOGIN :

S'inscrire | Disclaimer

   EN    FR    IT 

 










Légende :    VFR   VFR Marginal   IFR   IFR Intensif   IFR Très Intensif
Visi : 
Plafond : 
>= 8 km
>= 3000ft
5 à 8 km
1000 à 3000 ft
1500m à 5 km
500 à 1000 ft
800 à 1500m
200 à 500 ft
< 800m
< 200 ft
Symboles :   Orages  Brouillard  Fortes neiges  Fortes précipitations  Vent > 20 kt
SIGMETs :   Divers  Orages  Givrage  Turbulence  Onde Orograph.  Cendres Volcan.







- Altitude de l'aérodrome : 33 ft
- Code IATA : MHZ


EGUN - RAF Mildenhall

DERNIER METAR :
  • 250816Z AUTO 26013KT 9999 FEW020 SCT025 BKN032 11/11 A2983 RMK AO2 SLP105 $

METARs EXPIRÉS :
  • 250756Z AUTO 26014KT 9999 SCT020 11/11 A2983 RMK AO2 SLP105 T01080108 $
  • 250656Z AUTO 27014KT 9999 CLR 10/10 A2981 RMK AO2 SLP098 T00970097 $
  • 250556Z AUTO 25009KT 9999 SCT055 09/09 A2981 RMK AO2 SLP098 60000 T00860086 10098 20071 51012 $

TAF TAF EGUN
Valide du 25 à 04h jusqu'au 26 à 10h UTC


250403Z 2504/2610 29012KT 9999 SCT015 BKN020 610505 QNH2974INS
BECMG 2508/2509 29012G20KT 9999 BKN030 610409 QNH2980INS
TEMPO 2512/2515 26015G25KT 8000 -RA OVC020
BECMG 2514/2515 25012G20KT 8000 -SHRA VCTS BKN030CB 610309 QNH2985INS
BECMG 2518/2519 25012G20KT 9999 NSW BKN025 610309 QNH2987INS
BECMG 2600/2601 25015KT 9999 SCT010 BKN020 610309 QNH2988INS TX14/2512Z TN04/2603Z
Pas de NOTAMs connus pour ce terrain.



MET'MAP, la Météo Aéronautique d'un coup d'oeil ! - Copyright ORBIFLY Décembre 2007 - Disclaimer

ORBIFLY MET'MAP TEAM :

Programmation & Développement : Alexandra Zaïnal
Conception & Développement : Baudouin d'Aumeries
Co-Programmation & Développement : Marc-Olivier Méhu
Soutien technique & logistique : Manuel Goepfert

Contact : metmap@orbifly.com




SOURCES & CREDITS :

   NOAA